|DLH8RX|EDDF-EHAM|A321|IVAO|

(1/3) > >>

lekale20:
Terve kaikille!

Suoraan asiaan->

ATS:

(FPL-DLH8RX-IN
 -A321/M-SDGJPRWYZ/S
 -EDDF1155
 -N0428F260 MARUN Y152 ARPEG/N0434F280 Z850 HMM T281 NORKU
 -EHAM0047 EHRD
 -EET/EDUU0013 EHAA0026 REG/DAIRY OPR/DLH RMK/TCAS

Loadsheet:
___________________________________________________________
L O A D S H E E T              ISSUED BY        APPROVED      DATE         TIME

                                                                                04 JUL 2011  1417
                                       .........       ..........
                           HENRI PÄLKÄS   LEEVI LEHTONEN

ALL WEIGHTS IN KILOGRAMS

FROM/TO    FLIGHT    A/C REG      A/C TYPE                  CONFIG 
EDDF/EHAM  DLH8RX    D-AIRY       A320-214/CFM56-5B4        C42 Y113     


                         WEIGHT   DISTRIBUTION

LOAD IN COMPARTMENTS       4326   1/1854 3/2472

PASSENGER/CABIN BAG        7840   AD/90 C/8 I/5    TTL 98+5

TOTAL PAYLOAD             12166                           LAST MINUTE CHANGES
DRY OPERATING WEIGHT      43069                     DEST  SPEC  CL/CPT  +/-  WEIGHT
ZERO FUEL WEIGHT ACTUAL   55235   MAX    61000
TAKE OFF FUEL              6600
TAKE OFF WEIGHT  ACTUAL   61835   MAX    77000
TRIP FUEL                  2030
LANDING WEIGHT   ACTUAL   59805   MAX    64500 L
TAXI OUT FUEL               115


UNDERLOAD BEFORE L.M.C.    4695   LIMITED BY LDW            LMC TOTAL  + / -


BALANCING/TRIM CONDITIONS
MACZFW  23.89%
MACTOW  25.77%   STAB TRIM: 0.6 UP
MACLDW  25.48%


MAC LIMITS
ZFW   FWD 16.69%   AFT 42.00%
TOW   FWD 16.95%   AFT 42.00%
LDW   FWD 16.87%   AFT 43.00%


TRIM BY CABIN AREA
A8.B90


CAPTAINS INFORMATION/NOTES
STD WEIGHTS USED  ADULT/84 CHILD/35 INFANT/0
BLOCK FUEL/   6715 (  8316 LITER)
LANDG FUEL/   4570 (  5659 LITER)
TAXI TIME 10 MIN

SELCAL/BK-EM

END LOADSHEET DLH8RX EDDF-EHAM
________________________________________________________________
Katsaus säähän:

FRANKFURT
EDDF 041750Z 05006KT 020V080 CAVOK 23/14 Q1014 NOSIG
EDDF 041700Z 0418/0524 05005KT CAVOK

AMSTERDAM SCHIPHOL
EHAM 041725Z 03007KT 350V070 9999 FEW032 19/12 Q1016 NOSIG=
EHAM 041643Z 0418/0524 04007KT CAVOK PROB30 0501/0504 6000 MIFG

ROTTERDAM
EHRD 041725Z AUTO 04006KT 350V080 9999 BKN035 21/12 Q1016NOSIG=
EHRD 041648Z 0418/0524 01006KT CAVOK
______________________________________________________________

Standilla B10 Frankfurt kylmänä
[ Attachment not found - or removed ]

Start and push B10
[ Attachment not found - or removed ]

Taxia kohti odotuspaikkaa kiitotie 25L
[ Attachment not found - or removed ]

Muuta liikennettä, SAS
[ Attachment not found - or removed ]

Ja sitten Lufthansa cargon MD-11
[ Attachment not found - or removed ]

Lajitoveri oli ilmassa, pienet kulmat
[ Attachment not found - or removed ]

Ilmassa, kohti lentopintaa 260
[ Attachment not found - or removed ]

 
[ Attachment not found - or removed ]

Ja lentopinnalla 280
[ Attachment not found - or removed ]

Sorvia (visuaalia) kiitotielle 06
[ Attachment not found - or removed ]

Siihen tömähti ja eikun terminaalille.
[ Attachment not found - or removed ]

Sitten päästin terminaalille koneet kiinni ja ulos.
[ Attachment not found - or removed ]

Kiitokset kaikille, kuvissa vielä karkkisuutta yritetään hioa pois

Leevi

Saikksa:
Quote

Sorvia (visuaalia) kiitotielle 06

Leevi


Pälkäs päästetty vetämään visuaalia? 

h-enri:
Quote

Pälkäs päästetty vetämään visuaalia? 


?

Pade:
Quote

Pälkäs päästetty vetämään visuaalia? 


Nii no miksei jotai päästettäs?

h-enri:
Quote

Nii no miksei jotai päästettäs?


Ja en ainakaan tietääkseni osaa kauko-ohjata mielen voimalla. 

Navigation

Up one level

Next page